sensor_id;sensor_type;location;lat;lon;timestamp;temperature;humidity
75769;DHT22;64379;48.888;8.330;2024-01-15T00:00:11;-1.90;74.60
75769;DHT22;64379;48.888;8.330;2024-01-15T00:02:37;-1.90;74.60
75769;DHT22;64379;48.888;8.330;2024-01-15T00:05:03;-1.90;74.60
75769;DHT22;64379;48.888;8.330;2024-01-15T00:07:29;-2.00;74.80
75769;DHT22;64379;48.888;8.330;2024-01-15T00:09:54;-2.00;74.70
75769;DHT22;64379;48.888;8.330;2024-01-15T00:12:20;-2.10;74.80
75769;DHT22;64379;48.888;8.330;2024-01-15T00:14:45;-2.10;74.80
75769;DHT22;64379;48.888;8.330;2024-01-15T00:17:11;-2.00;74.90
75769;DHT22;64379;48.888;8.330;2024-01-15T00:19:38;-2.10;74.90
75769;DHT22;64379;48.888;8.330;2024-01-15T00:22:04;-2.00;74.80
75769;DHT22;64379;48.888;8.330;2024-01-15T00:24:30;-2.10;74.90
75769;DHT22;64379;48.888;8.330;2024-01-15T00:26:55;-2.10;75.00
75769;DHT22;64379;48.888;8.330;2024-01-15T00:29:21;-2.10;75.00
75769;DHT22;64379;48.888;8.330;2024-01-15T00:31:47;-2.10;75.00
75769;DHT22;64379;48.888;8.330;2024-01-15T00:34:12;-2.00;75.00
75769;DHT22;64379;48.888;8.330;2024-01-15T00:36:38;-2.00;75.00
75769;DHT22;64379;48.888;8.330;2024-01-15T00:39:04;-2.00;75.00
75769;DHT22;64379;48.888;8.330;2024-01-15T00:41:31;-1.90;74.80
75769;DHT22;64379;48.888;8.330;2024-01-15T00:43:56;-1.90;74.80
75769;DHT22;64379;48.888;8.330;2024-01-15T00:46:22;-1.90;74.90
75769;DHT22;64379;48.888;8.330;2024-01-15T00:48:47;-1.90;74.80
75769;DHT22;64379;48.888;8.330;2024-01-15T00:51:13;-1.90;74.80
75769;DHT22;64379;48.888;8.330;2024-01-15T00:53:39;-1.90;74.90
75769;DHT22;64379;48.888;8.330;2024-01-15T00:56:05;-2.00;75.10
75769;DHT22;64379;48.888;8.330;2024-01-15T00:58:30;-1.90;75.20
75769;DHT22;64379;48.888;8.330;2024-01-15T01:00:56;-2.00;75.30
75769;DHT22;64379;48.888;8.330;2024-01-15T01:03:22;-2.10;75.40
75769;DHT22;64379;48.888;8.330;2024-01-15T01:05:51;-2.00;75.60
75769;DHT22;64379;48.888;8.330;2024-01-15T01:08:16;-2.10;75.70
75769;DHT22;64379;48.888;8.330;2024-01-15T01:10:42;-2.10;75.90
75769;DHT22;64379;48.888;8.330;2024-01-15T01:13:08;-2.10;76.10
75769;DHT22;64379;48.888;8.330;2024-01-15T01:15:34;-2.10;76.20
75769;DHT22;64379;48.888;8.330;2024-01-15T01:18:00;-2.10;76.40
75769;DHT22;64379;48.888;8.330;2024-01-15T01:20:26;-2.10;76.40
75769;DHT22;64379;48.888;8.330;2024-01-15T01:22:51;-2.10;76.50
75769;DHT22;64379;48.888;8.330;2024-01-15T01:25:17;-2.10;76.70
75769;DHT22;64379;48.888;8.330;2024-01-15T01:27:43;-2.10;76.80
75769;DHT22;64379;48.888;8.330;2024-01-15T01:30:09;-2.10;76.80
75769;DHT22;64379;48.888;8.330;2024-01-15T01:32:34;-2.10;76.90
75769;DHT22;64379;48.888;8.330;2024-01-15T01:35:00;-2.10;77.10
75769;DHT22;64379;48.888;8.330;2024-01-15T01:37:26;-2.10;77.20
75769;DHT22;64379;48.888;8.330;2024-01-15T01:39:52;-2.10;77.20
75769;DHT22;64379;48.888;8.330;2024-01-15T01:42:17;-2.10;77.30
75769;DHT22;64379;48.888;8.330;2024-01-15T01:44:43;-2.10;77.30
75769;DHT22;64379;48.888;8.330;2024-01-15T01:47:09;-2.10;77.40
75769;DHT22;64379;48.888;8.330;2024-01-15T01:49:35;-2.10;77.40
75769;DHT22;64379;48.888;8.330;2024-01-15T01:52:03;-2.10;77.60
75769;DHT22;64379;48.888;8.330;2024-01-15T01:54:31;-2.10;77.60
75769;DHT22;64379;48.888;8.330;2024-01-15T01:56:58;-2.10;77.60
75769;DHT22;64379;48.888;8.330;2024-01-15T01:59:28;-2.10;77.70
75769;DHT22;64379;48.888;8.330;2024-01-15T02:01:54;-2.00;77.60
75769;DHT22;64379;48.888;8.330;2024-01-15T02:04:23;-1.90;77.50
75769;DHT22;64379;48.888;8.330;2024-01-15T02:06:49;-1.90;77.50
75769;DHT22;64379;48.888;8.330;2024-01-15T02:09:15;-1.90;77.50
75769;DHT22;64379;48.888;8.330;2024-01-15T02:11:42;-1.90;77.40
75769;DHT22;64379;48.888;8.330;2024-01-15T02:14:09;-1.90;77.40
75769;DHT22;64379;48.888;8.330;2024-01-15T02:16:34;-1.90;77.40
75769;DHT22;64379;48.888;8.330;2024-01-15T02:19:00;-1.90;77.40
75769;DHT22;64379;48.888;8.330;2024-01-15T02:21:26;-1.80;77.40
75769;DHT22;64379;48.888;8.330;2024-01-15T02:23:54;-1.80;77.50
75769;DHT22;64379;48.888;8.330;2024-01-15T02:26:21;-1.80;77.50
75769;DHT22;64379;48.888;8.330;2024-01-15T02:28:47;-1.80;77.30
75769;DHT22;64379;48.888;8.330;2024-01-15T02:31:13;-1.80;77.30
75769;DHT22;64379;48.888;8.330;2024-01-15T02:33:39;-1.80;77.30
75769;DHT22;64379;48.888;8.330;2024-01-15T02:36:05;-1.80;77.20
75769;DHT22;64379;48.888;8.330;2024-01-15T02:38:31;-1.80;77.30
75769;DHT22;64379;48.888;8.330;2024-01-15T02:40:57;-1.80;77.40
75769;DHT22;64379;48.888;8.330;2024-01-15T02:43:22;-1.70;77.40
75769;DHT22;64379;48.888;8.330;2024-01-15T02:45:48;-1.70;77.30
75769;DHT22;64379;48.888;8.330;2024-01-15T02:48:14;-1.80;77.40
75769;DHT22;64379;48.888;8.330;2024-01-15T02:50:39;-1.70;77.50
75769;DHT22;64379;48.888;8.330;2024-01-15T02:53:05;-1.70;77.60
75769;DHT22;64379;48.888;8.330;2024-01-15T02:55:31;-1.70;77.60
75769;DHT22;64379;48.888;8.330;2024-01-15T02:57:57;-1.70;77.60
75769;DHT22;64379;48.888;8.330;2024-01-15T03:00:22;-1.70;77.60
75769;DHT22;64379;48.888;8.330;2024-01-15T03:02:49;-1.70;77.80
75769;DHT22;64379;48.888;8.330;2024-01-15T03:05:15;-1.70;77.70
75769;DHT22;64379;48.888;8.330;2024-01-15T03:07:41;-1.70;77.80
75769;DHT22;64379;48.888;8.330;2024-01-15T03:10:07;-1.60;77.80
75769;DHT22;64379;48.888;8.330;2024-01-15T03:12:33;-1.60;77.80
75769;DHT22;64379;48.888;8.330;2024-01-15T03:14:59;-1.60;77.80
75769;DHT22;64379;48.888;8.330;2024-01-15T03:17:24;-1.60;77.70
75769;DHT22;64379;48.888;8.330;2024-01-15T03:19:50;-1.50;77.50
75769;DHT22;64379;48.888;8.330;2024-01-15T03:22:16;-1.50;77.50
75769;DHT22;64379;48.888;8.330;2024-01-15T03:24:42;-1.50;77.40
75769;DHT22;64379;48.888;8.330;2024-01-15T03:27:08;-1.50;77.40
75769;DHT22;64379;48.888;8.330;2024-01-15T03:29:33;-1.50;77.20
75769;DHT22;64379;48.888;8.330;2024-01-15T03:31:59;-1.50;77.20
75769;DHT22;64379;48.888;8.330;2024-01-15T03:34:24;-1.50;77.30
75769;DHT22;64379;48.888;8.330;2024-01-15T03:36:50;-1.40;77.20
75769;DHT22;64379;48.888;8.330;2024-01-15T03:39:16;-1.40;77.00
75769;DHT22;64379;48.888;8.330;2024-01-15T03:41:41;-1.30;77.00
75769;DHT22;64379;48.888;8.330;2024-01-15T03:44:07;-1.30;76.90
75769;DHT22;64379;48.888;8.330;2024-01-15T03:46:32;-1.30;76.90
75769;DHT22;64379;48.888;8.330;2024-01-15T03:48:58;-1.30;76.90
75769;DHT22;64379;48.888;8.330;2024-01-15T03:51:24;-1.30;76.80
75769;DHT22;64379;48.888;8.330;2024-01-15T03:53:49;-1.30;76.80
75769;DHT22;64379;48.888;8.330;2024-01-15T03:56:15;-1.30;76.80
75769;DHT22;64379;48.888;8.330;2024-01-15T03:58:41;-1.30;76.80
75769;DHT22;64379;48.888;8.330;2024-01-15T04:01:11;-1.20;76.70
75769;DHT22;64379;48.888;8.330;2024-01-15T04:03:37;-1.20;76.60
75769;DHT22;64379;48.888;8.330;2024-01-15T04:06:04;-1.20;76.60
75769;DHT22;64379;48.888;8.330;2024-01-15T04:08:29;-1.10;76.70
75769;DHT22;64379;48.888;8.330;2024-01-15T04:10:55;-1.10;76.90
75769;DHT22;64379;48.888;8.330;2024-01-15T04:13:21;-1.10;76.90
75769;DHT22;64379;48.888;8.330;2024-01-15T04:15:47;-1.10;77.10
75769;DHT22;64379;48.888;8.330;2024-01-15T04:18:12;-1.10;77.30
75769;DHT22;64379;48.888;8.330;2024-01-15T04:20:38;-1.10;77.30
75769;DHT22;64379;48.888;8.330;2024-01-15T04:23:04;-1.20;77.50
75769;DHT22;64379;48.888;8.330;2024-01-15T04:25:30;-1.10;77.60
75769;DHT22;64379;48.888;8.330;2024-01-15T04:27:55;-1.10;77.70
75769;DHT22;64379;48.888;8.330;2024-01-15T04:30:21;-1.10;77.80
75769;DHT22;64379;48.888;8.330;2024-01-15T04:32:47;-1.10;77.90
75769;DHT22;64379;48.888;8.330;2024-01-15T04:35:12;-1.10;77.90
75769;DHT22;64379;48.888;8.330;2024-01-15T04:37:39;-1.10;77.90
75769;DHT22;64379;48.888;8.330;2024-01-15T04:40:05;-1.10;78.00
75769;DHT22;64379;48.888;8.330;2024-01-15T04:42:31;-1.10;78.00
75769;DHT22;64379;48.888;8.330;2024-01-15T04:44:57;-1.10;78.00
75769;DHT22;64379;48.888;8.330;2024-01-15T04:47:22;-1.10;78.10
75769;DHT22;64379;48.888;8.330;2024-01-15T04:49:48;-1.10;78.10
75769;DHT22;64379;48.888;8.330;2024-01-15T04:52:14;-1.10;78.10
75769;DHT22;64379;48.888;8.330;2024-01-15T04:54:40;-1.10;78.10
75769;DHT22;64379;48.888;8.330;2024-01-15T04:57:05;-1.00;78.20
75769;DHT22;64379;48.888;8.330;2024-01-15T04:59:31;-1.00;78.10
75769;DHT22;64379;48.888;8.330;2024-01-15T05:01:57;-1.00;78.10
75769;DHT22;64379;48.888;8.330;2024-01-15T05:04:23;-1.00;78.10
75769;DHT22;64379;48.888;8.330;2024-01-15T05:06:50;-1.00;77.90
75769;DHT22;64379;48.888;8.330;2024-01-15T05:09:15;-1.00;77.70
75769;DHT22;64379;48.888;8.330;2024-01-15T05:11:41;-1.00;77.40
75769;DHT22;64379;48.888;8.330;2024-01-15T05:14:07;-1.00;77.40
75769;DHT22;64379;48.888;8.330;2024-01-15T05:16:32;-1.00;77.50
75769;DHT22;64379;48.888;8.330;2024-01-15T05:18:58;-1.00;77.60
75769;DHT22;64379;48.888;8.330;2024-01-15T05:21:24;-1.00;77.70
75769;DHT22;64379;48.888;8.330;2024-01-15T05:23:49;-1.00;77.60
75769;DHT22;64379;48.888;8.330;2024-01-15T05:26:15;-1.00;77.70
75769;DHT22;64379;48.888;8.330;2024-01-15T05:28:41;-1.00;77.70
75769;DHT22;64379;48.888;8.330;2024-01-15T05:31:08;-1.00;77.60
75769;DHT22;64379;48.888;8.330;2024-01-15T05:33:34;-1.00;77.70
75769;DHT22;64379;48.888;8.330;2024-01-15T05:36:00;-1.00;77.70
75769;DHT22;64379;48.888;8.330;2024-01-15T05:38:25;-1.00;77.60
75769;DHT22;64379;48.888;8.330;2024-01-15T05:40:51;-1.00;77.60
75769;DHT22;64379;48.888;8.330;2024-01-15T05:43:17;-1.00;77.70
75769;DHT22;64379;48.888;8.330;2024-01-15T05:45:43;-1.00;77.60
75769;DHT22;64379;48.888;8.330;2024-01-15T05:48:10;-1.00;77.60
75769;DHT22;64379;48.888;8.330;2024-01-15T05:50:36;-1.00;77.60
75769;DHT22;64379;48.888;8.330;2024-01-15T05:53:01;-1.00;77.70
75769;DHT22;64379;48.888;8.330;2024-01-15T05:55:28;-1.00;77.80
75769;DHT22;64379;48.888;8.330;2024-01-15T05:57:53;-1.00;77.80
75769;DHT22;64379;48.888;8.330;2024-01-15T06:00:19;-1.00;77.80
75769;DHT22;64379;48.888;8.330;2024-01-15T06:02:45;-1.00;77.80
75769;DHT22;64379;48.888;8.330;2024-01-15T06:05:11;-1.00;77.70
75769;DHT22;64379;48.888;8.330;2024-01-15T06:07:36;-1.00;77.70
75769;DHT22;64379;48.888;8.330;2024-01-15T06:10:03;-1.00;77.70
75769;DHT22;64379;48.888;8.330;2024-01-15T06:12:30;-1.00;77.50
75769;DHT22;64379;48.888;8.330;2024-01-15T06:14:56;-1.00;77.50
75769;DHT22;64379;48.888;8.330;2024-01-15T06:17:22;-1.00;77.40
75769;DHT22;64379;48.888;8.330;2024-01-15T06:19:47;-1.00;77.40
75769;DHT22;64379;48.888;8.330;2024-01-15T06:22:13;-1.00;77.60
75769;DHT22;64379;48.888;8.330;2024-01-15T06:24:38;-1.00;77.70
75769;DHT22;64379;48.888;8.330;2024-01-15T06:27:04;-1.00;77.70
75769;DHT22;64379;48.888;8.330;2024-01-15T06:29:30;-1.00;77.70
75769;DHT22;64379;48.888;8.330;2024-01-15T06:31:55;-1.00;77.70
75769;DHT22;64379;48.888;8.330;2024-01-15T06:34:21;-1.00;77.60
75769;DHT22;64379;48.888;8.330;2024-01-15T06:36:47;-0.90;77.40
75769;DHT22;64379;48.888;8.330;2024-01-15T06:39:12;-0.90;77.20
75769;DHT22;64379;48.888;8.330;2024-01-15T06:41:38;-0.90;77.10
75769;DHT22;64379;48.888;8.330;2024-01-15T06:44:12;-0.80;77.00
75769;DHT22;64379;48.888;8.330;2024-01-15T06:46:45;-0.70;76.70
75769;DHT22;64379;48.888;8.330;2024-01-15T06:49:11;-0.70;76.50
75769;DHT22;64379;48.888;8.330;2024-01-15T06:51:37;-0.70;76.40
75769;DHT22;64379;48.888;8.330;2024-01-15T06:54:03;-0.70;76.10
75769;DHT22;64379;48.888;8.330;2024-01-15T06:56:29;-0.60;76.00
75769;DHT22;64379;48.888;8.330;2024-01-15T06:58:54;-0.60;75.90
75769;DHT22;64379;48.888;8.330;2024-01-15T07:01:20;-0.60;75.80
75769;DHT22;64379;48.888;8.330;2024-01-15T07:03:45;-0.60;75.70
75769;DHT22;64379;48.888;8.330;2024-01-15T07:06:12;-0.50;75.70
75769;DHT22;64379;48.888;8.330;2024-01-15T07:08:39;-0.50;75.50
75769;DHT22;64379;48.888;8.330;2024-01-15T07:11:05;-0.50;75.30
75769;DHT22;64379;48.888;8.330;2024-01-15T07:13:30;-0.50;75.10
75769;DHT22;64379;48.888;8.330;2024-01-15T07:15:56;-0.40;75.00
75769;DHT22;64379;48.888;8.330;2024-01-15T07:18:22;-0.40;74.70
75769;DHT22;64379;48.888;8.330;2024-01-15T07:20:47;-0.30;74.60
75769;DHT22;64379;48.888;8.330;2024-01-15T07:23:13;-0.30;74.60
75769;DHT22;64379;48.888;8.330;2024-01-15T07:25:38;-0.30;74.60
75769;DHT22;64379;48.888;8.330;2024-01-15T07:28:04;-0.40;74.60
75769;DHT22;64379;48.888;8.330;2024-01-15T07:30:30;-0.40;74.70
75769;DHT22;64379;48.888;8.330;2024-01-15T07:32:59;-0.50;74.80
75769;DHT22;64379;48.888;8.330;2024-01-15T07:35:25;-0.60;75.20
75769;DHT22;64379;48.888;8.330;2024-01-15T07:37:50;-0.60;75.50
75769;DHT22;64379;48.888;8.330;2024-01-15T07:40:16;-0.70;75.60
75769;DHT22;64379;48.888;8.330;2024-01-15T07:42:41;-0.60;75.70
75769;DHT22;64379;48.888;8.330;2024-01-15T07:45:08;-0.70;75.60
75769;DHT22;64379;48.888;8.330;2024-01-15T07:47:34;-0.60;75.60
75769;DHT22;64379;48.888;8.330;2024-01-15T07:50:00;-0.60;75.50
75769;DHT22;64379;48.888;8.330;2024-01-15T07:52:25;-0.60;75.40
75769;DHT22;64379;48.888;8.330;2024-01-15T07:54:51;-0.60;75.40
75769;DHT22;64379;48.888;8.330;2024-01-15T07:57:17;-0.60;75.30
75769;DHT22;64379;48.888;8.330;2024-01-15T07:59:42;-0.60;75.30
75769;DHT22;64379;48.888;8.330;2024-01-15T08:02:08;-0.60;75.40
75769;DHT22;64379;48.888;8.330;2024-01-15T08:04:33;-0.50;75.30
75769;DHT22;64379;48.888;8.330;2024-01-15T08:06:59;-0.60;75.30
75769;DHT22;64379;48.888;8.330;2024-01-15T08:09:24;-0.50;75.40
75769;DHT22;64379;48.888;8.330;2024-01-15T08:11:50;-0.60;75.60
75769;DHT22;64379;48.888;8.330;2024-01-15T08:14:16;-0.60;75.90
75769;DHT22;64379;48.888;8.330;2024-01-15T08:16:41;-0.60;76.20
75769;DHT22;64379;48.888;8.330;2024-01-15T08:19:09;-0.60;76.40
75769;DHT22;64379;48.888;8.330;2024-01-15T08:21:34;-0.60;76.30
75769;DHT22;64379;48.888;8.330;2024-01-15T08:24:01;-0.60;76.50
75769;DHT22;64379;48.888;8.330;2024-01-15T08:26:28;-0.60;76.50
75769;DHT22;64379;48.888;8.330;2024-01-15T08:28:53;-0.60;76.50
75769;DHT22;64379;48.888;8.330;2024-01-15T08:31:19;-0.60;76.50
75769;DHT22;64379;48.888;8.330;2024-01-15T08:33:44;-0.60;76.40
75769;DHT22;64379;48.888;8.330;2024-01-15T08:36:10;-0.60;76.50
75769;DHT22;64379;48.888;8.330;2024-01-15T08:38:36;-0.50;76.50
75769;DHT22;64379;48.888;8.330;2024-01-15T08:41:02;-0.50;76.40
75769;DHT22;64379;48.888;8.330;2024-01-15T08:43:27;-0.40;76.50
75769;DHT22;64379;48.888;8.330;2024-01-15T08:45:53;-0.40;76.30
75769;DHT22;64379;48.888;8.330;2024-01-15T08:48:19;-0.30;76.00
75769;DHT22;64379;48.888;8.330;2024-01-15T08:50:45;-0.30;75.70
75769;DHT22;64379;48.888;8.330;2024-01-15T08:53:13;-0.30;75.60
75769;DHT22;64379;48.888;8.330;2024-01-15T08:55:39;-0.30;75.70
75769;DHT22;64379;48.888;8.330;2024-01-15T08:58:05;-0.30;75.60
75769;DHT22;64379;48.888;8.330;2024-01-15T09:00:31;-0.30;75.60
75769;DHT22;64379;48.888;8.330;2024-01-15T09:02:57;-0.20;75.30
75769;DHT22;64379;48.888;8.330;2024-01-15T09:05:23;-0.10;75.20
75769;DHT22;64379;48.888;8.330;2024-01-15T09:07:48;-0.10;75.00
75769;DHT22;64379;48.888;8.330;2024-01-15T09:10:14;-0.10;74.90
75769;DHT22;64379;48.888;8.330;2024-01-15T09:12:40;-0.10;74.80
75769;DHT22;64379;48.888;8.330;2024-01-15T09:15:06;-0.10;75.00
75769;DHT22;64379;48.888;8.330;2024-01-15T09:17:32;-0.10;74.90
75769;DHT22;64379;48.888;8.330;2024-01-15T09:19:58;0.00;74.70
75769;DHT22;64379;48.888;8.330;2024-01-15T09:22:24;0.00;74.70
75769;DHT22;64379;48.888;8.330;2024-01-15T09:24:49;0.00;74.70
75769;DHT22;64379;48.888;8.330;2024-01-15T09:27:15;0.00;74.60
75769;DHT22;64379;48.888;8.330;2024-01-15T09:29:41;0.00;74.60
75769;DHT22;64379;48.888;8.330;2024-01-15T09:32:08;0.10;74.30
75769;DHT22;64379;48.888;8.330;2024-01-15T09:34:34;0.20;74.10
75769;DHT22;64379;48.888;8.330;2024-01-15T09:37:00;0.30;73.80
75769;DHT22;64379;48.888;8.330;2024-01-15T09:39:26;0.30;73.70
75769;DHT22;64379;48.888;8.330;2024-01-15T09:41:52;0.40;73.70
75769;DHT22;64379;48.888;8.330;2024-01-15T09:44:19;0.50;73.40
75769;DHT22;64379;48.888;8.330;2024-01-15T09:46:45;0.60;73.20
75769;DHT22;64379;48.888;8.330;2024-01-15T09:49:12;0.60;73.10
75769;DHT22;64379;48.888;8.330;2024-01-15T09:51:38;0.60;73.00
75769;DHT22;64379;48.888;8.330;2024-01-15T09:54:05;0.60;73.20
75769;DHT22;64379;48.888;8.330;2024-01-15T09:56:31;0.60;73.50
75769;DHT22;64379;48.888;8.330;2024-01-15T09:58:57;0.60;73.50
75769;DHT22;64379;48.888;8.330;2024-01-15T10:01:23;0.60;73.60
75769;DHT22;64379;48.888;8.330;2024-01-15T10:03:50;0.60;73.60
75769;DHT22;64379;48.888;8.330;2024-01-15T10:06:16;0.50;73.50
75769;DHT22;64379;48.888;8.330;2024-01-15T10:08:49;0.50;73.60
75769;DHT22;64379;48.888;8.330;2024-01-15T10:11:15;0.50;73.90
75769;DHT22;64379;48.888;8.330;2024-01-15T10:13:40;0.50;74.00
75769;DHT22;64379;48.888;8.330;2024-01-15T10:16:06;0.50;75.20
75769;DHT22;64379;48.888;8.330;2024-01-15T10:18:32;0.40;77.30
75769;DHT22;64379;48.888;8.330;2024-01-15T10:20:58;0.20;80.30
75769;DHT22;64379;48.888;8.330;2024-01-15T10:23:24;0.00;82.10
75769;DHT22;64379;48.888;8.330;2024-01-15T10:25:50;0.00;83.30
75769;DHT22;64379;48.888;8.330;2024-01-15T10:28:19;-0.10;84.00
75769;DHT22;64379;48.888;8.330;2024-01-15T10:30:45;-0.10;84.30
75769;DHT22;64379;48.888;8.330;2024-01-15T10:33:11;-0.10;84.30
75769;DHT22;64379;48.888;8.330;2024-01-15T10:35:38;-0.10;83.70
75769;DHT22;64379;48.888;8.330;2024-01-15T10:38:05;0.00;83.70
75769;DHT22;64379;48.888;8.330;2024-01-15T10:40:31;0.00;83.80
75769;DHT22;64379;48.888;8.330;2024-01-15T10:42:57;0.00;83.80
75769;DHT22;64379;48.888;8.330;2024-01-15T10:45:23;0.00;83.60
75769;DHT22;64379;48.888;8.330;2024-01-15T10:47:49;0.00;83.60
75769;DHT22;64379;48.888;8.330;2024-01-15T10:50:15;0.00;83.70
75769;DHT22;64379;48.888;8.330;2024-01-15T10:52:42;0.00;84.00
75769;DHT22;64379;48.888;8.330;2024-01-15T10:55:11;0.00;84.10
75769;DHT22;64379;48.888;8.330;2024-01-15T10:57:37;0.00;84.30
75769;DHT22;64379;48.888;8.330;2024-01-15T11:00:04;0.00;84.40
75769;DHT22;64379;48.888;8.330;2024-01-15T11:02:36;0.00;84.60
75769;DHT22;64379;48.888;8.330;2024-01-15T11:05:02;0.00;85.40
75769;DHT22;64379;48.888;8.330;2024-01-15T11:07:30;-0.10;86.20
75769;DHT22;64379;48.888;8.330;2024-01-15T11:09:56;-0.10;86.70
75769;DHT22;64379;48.888;8.330;2024-01-15T11:12:24;-0.10;86.80
75769;DHT22;64379;48.888;8.330;2024-01-15T11:14:50;-0.10;87.00
75769;DHT22;64379;48.888;8.330;2024-01-15T11:17:17;-0.10;87.20
75769;DHT22;64379;48.888;8.330;2024-01-15T11:22:09;-0.10;86.30
75769;DHT22;64379;48.888;8.330;2024-01-15T11:24:40;0.00;85.80
75769;DHT22;64379;48.888;8.330;2024-01-15T11:27:07;0.00;85.40
75769;DHT22;64379;48.888;8.330;2024-01-15T11:29:36;0.00;85.90
75769;DHT22;64379;48.888;8.330;2024-01-15T11:32:07;-0.10;86.60
75769;DHT22;64379;48.888;8.330;2024-01-15T11:35:00;-0.10;87.00
75769;DHT22;64379;48.888;8.330;2024-01-15T11:40:35;-0.10;86.80
75769;DHT22;64379;48.888;8.330;2024-01-15T11:43:03;0.00;86.70
75769;DHT22;64379;48.888;8.330;2024-01-15T11:45:30;0.00;86.60
75769;DHT22;64379;48.888;8.330;2024-01-15T11:50:30;0.00;86.60
75769;DHT22;64379;48.888;8.330;2024-01-15T11:53:03;0.00;86.80
75769;DHT22;64379;48.888;8.330;2024-01-15T11:55:35;0.00;87.30
75769;DHT22;64379;48.888;8.330;2024-01-15T11:58:02;0.00;87.70
75769;DHT22;64379;48.888;8.330;2024-01-15T12:00:30;-0.10;88.00
75769;DHT22;64379;48.888;8.330;2024-01-15T12:02:58;-0.10;88.20
75769;DHT22;64379;48.888;8.330;2024-01-15T12:05:24;0.00;88.30
75769;DHT22;64379;48.888;8.330;2024-01-15T12:07:50;0.00;88.40
75769;DHT22;64379;48.888;8.330;2024-01-15T12:10:20;0.00;88.50
75769;DHT22;64379;48.888;8.330;2024-01-15T12:13:10;0.00;88.70
75769;DHT22;64379;48.888;8.330;2024-01-15T12:15:36;0.00;88.70
75769;DHT22;64379;48.888;8.330;2024-01-15T12:18:02;0.00;88.60
75769;DHT22;64379;48.888;8.330;2024-01-15T12:20:29;-0.10;88.60
75769;DHT22;64379;48.888;8.330;2024-01-15T12:22:55;0.00;88.70
75769;DHT22;64379;48.888;8.330;2024-01-15T12:25:22;-0.10;88.70
75769;DHT22;64379;48.888;8.330;2024-01-15T12:27:48;-0.10;88.90
75769;DHT22;64379;48.888;8.330;2024-01-15T12:30:14;-0.10;89.10
75769;DHT22;64379;48.888;8.330;2024-01-15T12:32:41;-0.10;89.20
75769;DHT22;64379;48.888;8.330;2024-01-15T12:35:13;-0.10;89.40
75769;DHT22;64379;48.888;8.330;2024-01-15T12:37:40;-0.10;89.40
75769;DHT22;64379;48.888;8.330;2024-01-15T12:40:07;-0.10;89.20
75769;DHT22;64379;48.888;8.330;2024-01-15T12:42:41;0.00;89.00
75769;DHT22;64379;48.888;8.330;2024-01-15T12:45:08;0.00;88.90
75769;DHT22;64379;48.888;8.330;2024-01-15T12:47:34;-0.10;88.80
75769;DHT22;64379;48.888;8.330;2024-01-15T12:50:00;0.00;88.70
75769;DHT22;64379;48.888;8.330;2024-01-15T12:52:29;0.00;88.70
75769;DHT22;64379;48.888;8.330;2024-01-15T12:54:55;0.00;88.60
75769;DHT22;64379;48.888;8.330;2024-01-15T12:57:20;0.00;88.60
75769;DHT22;64379;48.888;8.330;2024-01-15T12:59:46;0.00;88.60
75769;DHT22;64379;48.888;8.330;2024-01-15T13:02:13;0.00;88.60
75769;DHT22;64379;48.888;8.330;2024-01-15T13:04:39;0.00;88.70
75769;DHT22;64379;48.888;8.330;2024-01-15T13:07:06;0.00;88.80
75769;DHT22;64379;48.888;8.330;2024-01-15T13:09:32;0.00;88.90
75769;DHT22;64379;48.888;8.330;2024-01-15T13:11:58;0.00;88.80
75769;DHT22;64379;48.888;8.330;2024-01-15T13:14:24;0.10;88.80
75769;DHT22;64379;48.888;8.330;2024-01-15T13:16:50;0.10;88.70
75769;DHT22;64379;48.888;8.330;2024-01-15T13:19:15;0.20;88.70
75769;DHT22;64379;48.888;8.330;2024-01-15T13:21:41;0.20;88.60
75769;DHT22;64379;48.888;8.330;2024-01-15T13:24:07;0.30;88.60
75769;DHT22;64379;48.888;8.330;2024-01-15T13:26:33;0.30;88.60
75769;DHT22;64379;48.888;8.330;2024-01-15T13:29:01;0.20;88.60
75769;DHT22;64379;48.888;8.330;2024-01-15T13:31:27;0.20;88.70
75769;DHT22;64379;48.888;8.330;2024-01-15T13:33:53;0.20;88.90
75769;DHT22;64379;48.888;8.330;2024-01-15T13:36:19;0.20;89.00
75769;DHT22;64379;48.888;8.330;2024-01-15T13:38:46;0.20;89.20
75769;DHT22;64379;48.888;8.330;2024-01-15T13:41:12;0.20;89.30
75769;DHT22;64379;48.888;8.330;2024-01-15T13:43:38;0.20;89.40
75769;DHT22;64379;48.888;8.330;2024-01-15T13:46:03;0.30;89.40
75769;DHT22;64379;48.888;8.330;2024-01-15T13:48:30;0.30;89.40
75769;DHT22;64379;48.888;8.330;2024-01-15T13:50:57;0.30;89.30
75769;DHT22;64379;48.888;8.330;2024-01-15T13:53:23;0.30;89.30
75769;DHT22;64379;48.888;8.330;2024-01-15T13:55:48;0.30;89.40
75769;DHT22;64379;48.888;8.330;2024-01-15T13:58:14;0.40;89.40
75769;DHT22;64379;48.888;8.330;2024-01-15T14:00:40;0.40;89.20
75769;DHT22;64379;48.888;8.330;2024-01-15T14:03:05;0.40;89.10
75769;DHT22;64379;48.888;8.330;2024-01-15T14:05:31;0.40;89.10
75769;DHT22;64379;48.888;8.330;2024-01-15T14:07:56;0.40;88.90
75769;DHT22;64379;48.888;8.330;2024-01-15T14:10:22;0.50;88.50
75769;DHT22;64379;48.888;8.330;2024-01-15T14:12:47;0.50;88.30
75769;DHT22;64379;48.888;8.330;2024-01-15T14:15:13;0.60;87.90
75769;DHT22;64379;48.888;8.330;2024-01-15T14:17:39;0.60;87.10
75769;DHT22;64379;48.888;8.330;2024-01-15T14:20:05;0.70;86.60
75769;DHT22;64379;48.888;8.330;2024-01-15T14:22:31;0.80;86.60
75769;DHT22;64379;48.888;8.330;2024-01-15T14:24:57;0.80;86.20
75769;DHT22;64379;48.888;8.330;2024-01-15T14:27:23;0.90;85.70
75769;DHT22;64379;48.888;8.330;2024-01-15T14:29:49;0.90;85.50
75769;DHT22;64379;48.888;8.330;2024-01-15T14:32:14;0.90;85.00
75769;DHT22;64379;48.888;8.330;2024-01-15T14:34:40;0.80;85.10
75769;DHT22;64379;48.888;8.330;2024-01-15T14:37:05;0.80;85.10
75769;DHT22;64379;48.888;8.330;2024-01-15T14:39:31;0.80;85.20
75769;DHT22;64379;48.888;8.330;2024-01-15T14:41:59;0.80;85.50
75769;DHT22;64379;48.888;8.330;2024-01-15T14:44:26;0.80;85.40
75769;DHT22;64379;48.888;8.330;2024-01-15T14:46:51;0.80;85.50
75769;DHT22;64379;48.888;8.330;2024-01-15T14:49:17;0.80;85.30
75769;DHT22;64379;48.888;8.330;2024-01-15T14:51:43;0.80;85.30
75769;DHT22;64379;48.888;8.330;2024-01-15T14:54:10;0.70;85.20
75769;DHT22;64379;48.888;8.330;2024-01-15T14:56:35;0.60;84.90
75769;DHT22;64379;48.888;8.330;2024-01-15T14:59:01;0.60;84.60
75769;DHT22;64379;48.888;8.330;2024-01-15T15:01:27;0.70;84.10
75769;DHT22;64379;48.888;8.330;2024-01-15T15:03:52;0.70;84.00
75769;DHT22;64379;48.888;8.330;2024-01-15T15:06:18;0.60;83.70
75769;DHT22;64379;48.888;8.330;2024-01-15T15:08:44;0.60;83.00
75769;DHT22;64379;48.888;8.330;2024-01-15T15:11:09;0.70;82.20
75769;DHT22;64379;48.888;8.330;2024-01-15T15:13:36;0.70;81.80
75769;DHT22;64379;48.888;8.330;2024-01-15T15:16:02;0.70;82.10
75769;DHT22;64379;48.888;8.330;2024-01-15T15:18:27;0.60;81.90
75769;DHT22;64379;48.888;8.330;2024-01-15T15:20:55;0.70;80.70
75769;DHT22;64379;48.888;8.330;2024-01-15T15:23:21;0.60;80.70
75769;DHT22;64379;48.888;8.330;2024-01-15T15:25:47;0.60;80.30
75769;DHT22;64379;48.888;8.330;2024-01-15T15:28:12;0.60;79.90
75769;DHT22;64379;48.888;8.330;2024-01-15T15:30:40;0.60;79.50
75769;DHT22;64379;48.888;8.330;2024-01-15T15:33:05;0.60;79.40
75769;DHT22;64379;48.888;8.330;2024-01-15T15:35:31;0.60;79.40